sensor_id;sensor_type;location;lat;lon;timestamp;P1;durP1;ratioP1;P2;durP2;ratioP2
25449;SDS011;13371;52.080;5.624;2022-08-20T00:01:24;9.35;;;6.65;;
25449;SDS011;13371;52.080;5.624;2022-08-20T00:03:50;8.60;;;5.85;;
25449;SDS011;13371;52.080;5.624;2022-08-20T00:06:17;9.23;;;6.72;;
25449;SDS011;13371;52.080;5.624;2022-08-20T00:08:44;9.88;;;6.95;;
25449;SDS011;13371;52.080;5.624;2022-08-20T00:11:12;8.95;;;7.43;;
25449;SDS011;13371;52.080;5.624;2022-08-20T00:13:45;8.90;;;6.35;;
25449;SDS011;13371;52.080;5.624;2022-08-20T00:16:13;12.57;;;7.50;;
25449;SDS011;13371;52.080;5.624;2022-08-20T00:18:40;11.95;;;8.07;;
25449;SDS011;13371;52.080;5.624;2022-08-20T00:21:07;10.35;;;7.25;;
25449;SDS011;13371;52.080;5.624;2022-08-20T00:23:39;9.85;;;6.75;;
25449;SDS011;13371;52.080;5.624;2022-08-20T00:26:08;10.30;;;6.75;;
25449;SDS011;13371;52.080;5.624;2022-08-20T00:28:35;11.45;;;6.53;;
25449;SDS011;13371;52.080;5.624;2022-08-20T00:31:02;10.00;;;6.50;;
25449;SDS011;13371;52.080;5.624;2022-08-20T00:33:30;10.95;;;6.03;;
25449;SDS011;13371;52.080;5.624;2022-08-20T00:35:58;9.05;;;6.15;;
25449;SDS011;13371;52.080;5.624;2022-08-20T00:38:30;9.40;;;6.28;;
25449;SDS011;13371;52.080;5.624;2022-08-20T00:41:00;9.55;;;6.60;;
25449;SDS011;13371;52.080;5.624;2022-08-20T00:43:31;12.48;;;7.28;;
25449;SDS011;13371;52.080;5.624;2022-08-20T00:46:26;10.48;;;7.30;;
25449;SDS011;13371;52.080;5.624;2022-08-20T00:48:53;9.48;;;6.35;;
25449;SDS011;13371;52.080;5.624;2022-08-20T00:51:41;11.48;;;7.90;;
25449;SDS011;13371;52.080;5.624;2022-08-20T00:54:15;13.40;;;9.13;;
25449;SDS011;13371;52.080;5.624;2022-08-20T00:56:45;15.40;;;8.57;;
25449;SDS011;13371;52.080;5.624;2022-08-20T00:59:15;11.70;;;8.73;;
25449;SDS011;13371;52.080;5.624;2022-08-20T01:01:45;14.23;;;9.38;;
25449;SDS011;13371;52.080;5.624;2022-08-20T01:04:11;15.45;;;8.73;;
25449;SDS011;13371;52.080;5.624;2022-08-20T01:06:37;11.38;;;7.35;;
25449;SDS011;13371;52.080;5.624;2022-08-20T01:09:04;13.13;;;8.20;;
25449;SDS011;13371;52.080;5.624;2022-08-20T01:11:30;13.00;;;8.27;;
25449;SDS011;13371;52.080;5.624;2022-08-20T01:13:58;12.75;;;7.63;;
25449;SDS011;13371;52.080;5.624;2022-08-20T01:16:27;13.27;;;8.20;;
25449;SDS011;13371;52.080;5.624;2022-08-20T01:18:55;10.60;;;8.00;;
25449;SDS011;13371;52.080;5.624;2022-08-20T01:21:24;12.30;;;7.65;;
25449;SDS011;13371;52.080;5.624;2022-08-20T01:26:35;10.38;;;7.35;;
25449;SDS011;13371;52.080;5.624;2022-08-20T01:29:05;14.15;;;7.82;;
25449;SDS011;13371;52.080;5.624;2022-08-20T01:31:38;14.15;;;8.25;;
25449;SDS011;13371;52.080;5.624;2022-08-20T01:34:07;15.00;;;8.18;;
25449;SDS011;13371;52.080;5.624;2022-08-20T01:36:40;12.60;;;8.15;;
25449;SDS011;13371;52.080;5.624;2022-08-20T01:39:13;14.05;;;7.78;;
25449;SDS011;13371;52.080;5.624;2022-08-20T01:44:28;9.88;;;6.50;;
25449;SDS011;13371;52.080;5.624;2022-08-20T01:46:55;13.30;;;6.70;;
25449;SDS011;13371;52.080;5.624;2022-08-20T01:51:52;11.50;;;7.28;;
25449;SDS011;13371;52.080;5.624;2022-08-20T01:54:19;12.90;;;8.35;;
25449;SDS011;13371;52.080;5.624;2022-08-20T01:57:28;16.17;;;7.60;;
25449;SDS011;13371;52.080;5.624;2022-08-20T01:59:39;13.18;;;8.00;;
25449;SDS011;13371;52.080;5.624;2022-08-20T02:02:05;10.20;;;7.15;;
25449;SDS011;13371;52.080;5.624;2022-08-20T02:04:32;12.95;;;7.63;;
25449;SDS011;13371;52.080;5.624;2022-08-20T02:06:59;12.00;;;7.53;;
25449;SDS011;13371;52.080;5.624;2022-08-20T02:09:28;15.95;;;7.70;;
25449;SDS011;13371;52.080;5.624;2022-08-20T02:11:59;11.60;;;7.50;;
25449;SDS011;13371;52.080;5.624;2022-08-20T02:14:27;12.70;;;7.93;;
25449;SDS011;13371;52.080;5.624;2022-08-20T02:16:53;10.20;;;7.43;;
25449;SDS011;13371;52.080;5.624;2022-08-20T02:19:24;11.13;;;7.75;;
25449;SDS011;13371;52.080;5.624;2022-08-20T02:21:58;13.73;;;7.85;;
25449;SDS011;13371;52.080;5.624;2022-08-20T02:24:26;13.93;;;7.05;;
25449;SDS011;13371;52.080;5.624;2022-08-20T02:26:52;18.60;;;7.88;;
25449;SDS011;13371;52.080;5.624;2022-08-20T02:29:18;11.77;;;7.53;;
25449;SDS011;13371;52.080;5.624;2022-08-20T02:31:45;11.70;;;7.03;;
25449;SDS011;13371;52.080;5.624;2022-08-20T02:34:11;14.60;;;7.63;;
25449;SDS011;13371;52.080;5.624;2022-08-20T02:36:38;12.50;;;7.18;;
25449;SDS011;13371;52.080;5.624;2022-08-20T02:39:06;18.27;;;9.48;;
25449;SDS011;13371;52.080;5.624;2022-08-20T02:41:34;18.92;;;10.90;;
25449;SDS011;13371;52.080;5.624;2022-08-20T02:44:00;18.95;;;10.77;;
25449;SDS011;13371;52.080;5.624;2022-08-20T02:46:26;21.25;;;11.32;;
25449;SDS011;13371;52.080;5.624;2022-08-20T02:48:52;20.15;;;11.02;;
25449;SDS011;13371;52.080;5.624;2022-08-20T02:51:18;21.38;;;11.73;;
25449;SDS011;13371;52.080;5.624;2022-08-20T02:53:44;20.23;;;10.75;;
25449;SDS011;13371;52.080;5.624;2022-08-20T02:56:10;21.77;;;10.75;;
25449;SDS011;13371;52.080;5.624;2022-08-20T02:58:36;15.18;;;9.55;;
25449;SDS011;13371;52.080;5.624;2022-08-20T03:01:04;15.57;;;10.93;;
25449;SDS011;13371;52.080;5.624;2022-08-20T03:03:31;20.02;;;10.40;;
25449;SDS011;13371;52.080;5.624;2022-08-20T03:05:57;15.32;;;9.50;;
25449;SDS011;13371;52.080;5.624;2022-08-20T03:08:24;15.25;;;9.35;;
25449;SDS011;13371;52.080;5.624;2022-08-20T03:10:51;15.35;;;9.32;;
25449;SDS011;13371;52.080;5.624;2022-08-20T03:13:17;13.27;;;9.57;;
25449;SDS011;13371;52.080;5.624;2022-08-20T03:15:45;17.25;;;9.23;;
25449;SDS011;13371;52.080;5.624;2022-08-20T03:18:13;20.13;;;10.65;;
25449;SDS011;13371;52.080;5.624;2022-08-20T03:20:39;24.70;;;10.65;;
25449;SDS011;13371;52.080;5.624;2022-08-20T03:23:05;16.27;;;9.50;;
25449;SDS011;13371;52.080;5.624;2022-08-20T03:25:31;15.00;;;7.72;;
25449;SDS011;13371;52.080;5.624;2022-08-20T03:27:57;13.20;;;7.88;;
25449;SDS011;13371;52.080;5.624;2022-08-20T03:30:24;12.65;;;8.00;;
25449;SDS011;13371;52.080;5.624;2022-08-20T03:32:52;14.98;;;7.90;;
25449;SDS011;13371;52.080;5.624;2022-08-20T03:35:19;12.10;;;7.05;;
25449;SDS011;13371;52.080;5.624;2022-08-20T03:37:46;13.95;;;7.10;;
25449;SDS011;13371;52.080;5.624;2022-08-20T03:40:12;12.35;;;6.75;;
25449;SDS011;13371;52.080;5.624;2022-08-20T03:42:41;11.07;;;7.07;;
25449;SDS011;13371;52.080;5.624;2022-08-20T03:45:08;13.40;;;7.20;;
25449;SDS011;13371;52.080;5.624;2022-08-20T03:47:36;12.73;;;5.75;;
25449;SDS011;13371;52.080;5.624;2022-08-20T03:50:03;8.90;;;5.75;;
25449;SDS011;13371;52.080;5.624;2022-08-20T03:52:30;11.60;;;6.22;;
25449;SDS011;13371;52.080;5.624;2022-08-20T03:54:56;10.32;;;5.75;;
25449;SDS011;13371;52.080;5.624;2022-08-20T03:57:21;11.57;;;5.95;;
25449;SDS011;13371;52.080;5.624;2022-08-20T03:59:48;10.60;;;5.47;;
25449;SDS011;13371;52.080;5.624;2022-08-20T04:02:13;9.23;;;5.70;;
25449;SDS011;13371;52.080;5.624;2022-08-20T04:04:39;10.70;;;4.85;;
25449;SDS011;13371;52.080;5.624;2022-08-20T04:07:12;14.23;;;5.72;;
25449;SDS011;13371;52.080;5.624;2022-08-20T04:09:44;8.90;;;4.90;;
25449;SDS011;13371;52.080;5.624;2022-08-20T04:12:10;8.57;;;4.72;;
25449;SDS011;13371;52.080;5.624;2022-08-20T04:14:37;8.70;;;5.13;;
25449;SDS011;13371;52.080;5.624;2022-08-20T04:17:03;10.63;;;5.10;;
25449;SDS011;13371;52.080;5.624;2022-08-20T04:19:34;7.88;;;4.72;;
25449;SDS011;13371;52.080;5.624;2022-08-20T04:22:00;6.22;;;4.13;;
25449;SDS011;13371;52.080;5.624;2022-08-20T04:24:26;9.45;;;4.70;;
25449;SDS011;13371;52.080;5.624;2022-08-20T04:26:52;7.60;;;4.50;;
25449;SDS011;13371;52.080;5.624;2022-08-20T04:29:19;9.10;;;4.53;;
25449;SDS011;13371;52.080;5.624;2022-08-20T04:31:45;9.48;;;4.10;;
25449;SDS011;13371;52.080;5.624;2022-08-20T04:34:11;10.15;;;4.80;;
25449;SDS011;13371;52.080;5.624;2022-08-20T04:36:37;8.65;;;5.00;;
25449;SDS011;13371;52.080;5.624;2022-08-20T04:39:03;9.65;;;4.60;;
25449;SDS011;13371;52.080;5.624;2022-08-20T04:41:29;7.10;;;4.50;;
25449;SDS011;13371;52.080;5.624;2022-08-20T04:43:55;5.70;;;4.47;;
25449;SDS011;13371;52.080;5.624;2022-08-20T04:46:23;9.23;;;4.60;;
25449;SDS011;13371;52.080;5.624;2022-08-20T04:48:52;8.30;;;4.45;;
25449;SDS011;13371;52.080;5.624;2022-08-20T04:51:19;8.60;;;4.07;;
25449;SDS011;13371;52.080;5.624;2022-08-20T04:53:45;7.43;;;4.05;;
25449;SDS011;13371;52.080;5.624;2022-08-20T04:56:11;6.50;;;4.30;;
25449;SDS011;13371;52.080;5.624;2022-08-20T04:58:38;8.30;;;4.32;;
25449;SDS011;13371;52.080;5.624;2022-08-20T05:01:06;6.18;;;4.15;;
25449;SDS011;13371;52.080;5.624;2022-08-20T05:03:35;9.35;;;5.15;;
25449;SDS011;13371;52.080;5.624;2022-08-20T05:06:04;9.82;;;4.88;;
25449;SDS011;13371;52.080;5.624;2022-08-20T05:08:31;8.90;;;4.40;;
25449;SDS011;13371;52.080;5.624;2022-08-20T05:10:57;5.90;;;4.50;;
25449;SDS011;13371;52.080;5.624;2022-08-20T05:13:24;9.05;;;4.40;;
25449;SDS011;13371;52.080;5.624;2022-08-20T05:15:50;10.15;;;4.90;;
25449;SDS011;13371;52.080;5.624;2022-08-20T05:18:18;8.43;;;4.82;;
25449;SDS011;13371;52.080;5.624;2022-08-20T05:20:46;9.95;;;5.07;;
25449;SDS011;13371;52.080;5.624;2022-08-20T05:23:13;8.52;;;5.53;;
25449;SDS011;13371;52.080;5.624;2022-08-20T05:25:41;9.82;;;5.00;;
25449;SDS011;13371;52.080;5.624;2022-08-20T05:28:11;7.90;;;5.15;;
25449;SDS011;13371;52.080;5.624;2022-08-20T05:30:42;9.30;;;4.40;;
25449;SDS011;13371;52.080;5.624;2022-08-20T05:33:09;8.30;;;4.50;;
25449;SDS011;13371;52.080;5.624;2022-08-20T05:35:38;7.95;;;4.80;;
25449;SDS011;13371;52.080;5.624;2022-08-20T05:38:05;9.98;;;5.18;;
25449;SDS011;13371;52.080;5.624;2022-08-20T05:40:34;8.82;;;5.20;;
25449;SDS011;13371;52.080;5.624;2022-08-20T05:43:00;7.97;;;4.35;;
25449;SDS011;13371;52.080;5.624;2022-08-20T05:45:28;11.10;;;5.13;;
25449;SDS011;13371;52.080;5.624;2022-08-20T05:47:55;7.45;;;4.75;;
25449;SDS011;13371;52.080;5.624;2022-08-20T05:50:22;10.57;;;4.40;;
25449;SDS011;13371;52.080;5.624;2022-08-20T05:52:48;8.95;;;5.60;;
25449;SDS011;13371;52.080;5.624;2022-08-20T05:55:13;7.97;;;5.57;;
25449;SDS011;13371;52.080;5.624;2022-08-20T05:57:39;9.07;;;5.00;;
25449;SDS011;13371;52.080;5.624;2022-08-20T06:00:06;14.07;;;5.75;;
25449;SDS011;13371;52.080;5.624;2022-08-20T06:02:34;9.50;;;5.32;;
25449;SDS011;13371;52.080;5.624;2022-08-20T06:05:18;8.10;;;5.32;;
25449;SDS011;13371;52.080;5.624;2022-08-20T06:07:44;9.95;;;5.93;;
25449;SDS011;13371;52.080;5.624;2022-08-20T06:10:10;10.02;;;5.70;;
25449;SDS011;13371;52.080;5.624;2022-08-20T06:12:36;11.00;;;5.70;;
25449;SDS011;13371;52.080;5.624;2022-08-20T06:15:03;8.93;;;5.75;;
25449;SDS011;13371;52.080;5.624;2022-08-20T06:17:29;7.60;;;5.22;;
25449;SDS011;13371;52.080;5.624;2022-08-20T06:19:57;7.90;;;5.65;;
25449;SDS011;13371;52.080;5.624;2022-08-20T06:22:25;8.55;;;5.85;;
25449;SDS011;13371;52.080;5.624;2022-08-20T06:24:51;8.77;;;5.55;;
25449;SDS011;13371;52.080;5.624;2022-08-20T06:27:18;8.43;;;5.90;;
25449;SDS011;13371;52.080;5.624;2022-08-20T06:29:44;8.23;;;6.10;;
25449;SDS011;13371;52.080;5.624;2022-08-20T06:32:10;9.30;;;5.57;;
25449;SDS011;13371;52.080;5.624;2022-08-20T06:34:35;9.55;;;5.10;;
25449;SDS011;13371;52.080;5.624;2022-08-20T06:37:01;8.60;;;5.45;;
25449;SDS011;13371;52.080;5.624;2022-08-20T06:39:37;9.18;;;5.80;;
25449;SDS011;13371;52.080;5.624;2022-08-20T06:42:02;11.30;;;5.70;;
25449;SDS011;13371;52.080;5.624;2022-08-20T06:44:28;8.13;;;5.90;;
25449;SDS011;13371;52.080;5.624;2022-08-20T06:46:53;8.77;;;5.93;;
25449;SDS011;13371;52.080;5.624;2022-08-20T06:49:23;12.65;;;7.95;;
25449;SDS011;13371;52.080;5.624;2022-08-20T06:51:49;12.25;;;6.55;;
25449;SDS011;13371;52.080;5.624;2022-08-20T06:54:14;13.07;;;7.72;;
25449;SDS011;13371;52.080;5.624;2022-08-20T06:56:41;15.73;;;8.75;;
25449;SDS011;13371;52.080;5.624;2022-08-20T06:59:08;15.60;;;8.38;;
25449;SDS011;13371;52.080;5.624;2022-08-20T07:01:33;16.88;;;9.15;;
25449;SDS011;13371;52.080;5.624;2022-08-20T07:03:59;15.27;;;8.68;;
25449;SDS011;13371;52.080;5.624;2022-08-20T07:06:25;13.32;;;7.60;;
25449;SDS011;13371;52.080;5.624;2022-08-20T07:08:51;16.40;;;8.35;;
25449;SDS011;13371;52.080;5.624;2022-08-20T07:11:18;11.85;;;7.63;;
25449;SDS011;13371;52.080;5.624;2022-08-20T07:13:44;15.82;;;8.27;;
25449;SDS011;13371;52.080;5.624;2022-08-20T07:16:10;12.20;;;5.88;;
25449;SDS011;13371;52.080;5.624;2022-08-20T07:18:35;11.68;;;5.60;;
25449;SDS011;13371;52.080;5.624;2022-08-20T07:21:01;10.25;;;5.55;;
25449;SDS011;13371;52.080;5.624;2022-08-20T07:23:27;10.23;;;4.18;;
25449;SDS011;13371;52.080;5.624;2022-08-20T07:25:55;7.63;;;5.10;;
25449;SDS011;13371;52.080;5.624;2022-08-20T07:28:21;8.38;;;4.88;;
25449;SDS011;13371;52.080;5.624;2022-08-20T07:30:48;10.35;;;3.90;;
25449;SDS011;13371;52.080;5.624;2022-08-20T07:33:33;6.40;;;3.17;;
25449;SDS011;13371;52.080;5.624;2022-08-20T07:36:00;10.70;;;4.20;;
25449;SDS011;13371;52.080;5.624;2022-08-20T07:38:27;6.88;;;3.83;;
25449;SDS011;13371;52.080;5.624;2022-08-20T07:40:59;11.38;;;4.13;;
25449;SDS011;13371;52.080;5.624;2022-08-20T07:43:29;13.55;;;5.07;;
25449;SDS011;13371;52.080;5.624;2022-08-20T07:45:56;12.95;;;4.90;;
25449;SDS011;13371;52.080;5.624;2022-08-20T07:48:26;15.23;;;4.60;;
25449;SDS011;13371;52.080;5.624;2022-08-20T07:50:53;9.05;;;5.10;;
25449;SDS011;13371;52.080;5.624;2022-08-20T07:53:24;12.07;;;4.90;;
25449;SDS011;13371;52.080;5.624;2022-08-20T07:55:50;15.68;;;4.97;;
25449;SDS011;13371;52.080;5.624;2022-08-20T07:58:16;9.43;;;4.57;;
25449;SDS011;13371;52.080;5.624;2022-08-20T08:00:43;10.23;;;4.30;;
25449;SDS011;13371;52.080;5.624;2022-08-20T08:03:09;9.20;;;4.10;;
25449;SDS011;13371;52.080;5.624;2022-08-20T08:05:36;10.57;;;4.30;;
25449;SDS011;13371;52.080;5.624;2022-08-20T08:08:05;12.02;;;3.70;;
25449;SDS011;13371;52.080;5.624;2022-08-20T08:10:33;13.10;;;3.78;;
25449;SDS011;13371;52.080;5.624;2022-08-20T08:13:01;13.45;;;3.70;;
25449;SDS011;13371;52.080;5.624;2022-08-20T08:15:30;10.25;;;3.30;;
25449;SDS011;13371;52.080;5.624;2022-08-20T08:17:59;9.25;;;2.42;;
25449;SDS011;13371;52.080;5.624;2022-08-20T08:20:33;9.75;;;2.83;;
25449;SDS011;13371;52.080;5.624;2022-08-20T08:23:02;10.65;;;2.58;;
25449;SDS011;13371;52.080;5.624;2022-08-20T08:25:28;12.05;;;2.97;;
25449;SDS011;13371;52.080;5.624;2022-08-20T08:27:54;11.82;;;2.78;;
25449;SDS011;13371;52.080;5.624;2022-08-20T08:30:19;8.82;;;2.15;;
25449;SDS011;13371;52.080;5.624;2022-08-20T08:32:45;9.40;;;2.25;;
25449;SDS011;13371;52.080;5.624;2022-08-20T08:35:29;7.85;;;1.83;;
25449;SDS011;13371;52.080;5.624;2022-08-20T08:37:58;7.95;;;2.10;;
25449;SDS011;13371;52.080;5.624;2022-08-20T08:40:26;9.45;;;2.35;;
25449;SDS011;13371;52.080;5.624;2022-08-20T08:42:53;10.63;;;2.30;;
25449;SDS011;13371;52.080;5.624;2022-08-20T08:45:22;6.82;;;2.33;;
25449;SDS011;13371;52.080;5.624;2022-08-20T08:47:52;10.10;;;2.17;;
25449;SDS011;13371;52.080;5.624;2022-08-20T08:50:22;8.90;;;2.08;;
25449;SDS011;13371;52.080;5.624;2022-08-20T08:52:54;9.37;;;2.10;;
25449;SDS011;13371;52.080;5.624;2022-08-20T08:55:23;6.55;;;1.73;;
25449;SDS011;13371;52.080;5.624;2022-08-20T08:57:49;9.20;;;2.40;;
25449;SDS011;13371;52.080;5.624;2022-08-20T09:00:19;12.05;;;2.40;;
25449;SDS011;13371;52.080;5.624;2022-08-20T09:02:53;8.30;;;1.80;;
25449;SDS011;13371;52.080;5.624;2022-08-20T09:08:13;8.43;;;1.63;;
25449;SDS011;13371;52.080;5.624;2022-08-20T09:10:43;8.18;;;1.73;;
25449;SDS011;13371;52.080;5.624;2022-08-20T09:13:09;10.82;;;2.45;;
25449;SDS011;13371;52.080;5.624;2022-08-20T09:15:35;10.57;;;1.70;;
25449;SDS011;13371;52.080;5.624;2022-08-20T09:18:00;6.88;;;1.27;;
25449;SDS011;13371;52.080;5.624;2022-08-20T09:20:26;6.72;;;1.42;;
25449;SDS011;13371;52.080;5.624;2022-08-20T09:22:52;7.50;;;1.77;;
25449;SDS011;13371;52.080;5.624;2022-08-20T09:25:17;5.55;;;1.50;;
25449;SDS011;13371;52.080;5.624;2022-08-20T09:27:43;8.82;;;1.70;;
25449;SDS011;13371;52.080;5.624;2022-08-20T09:30:10;8.18;;;1.52;;
25449;SDS011;13371;52.080;5.624;2022-08-20T09:32:36;9.48;;;1.77;;
25449;SDS011;13371;52.080;5.624;2022-08-20T09:35:02;7.60;;;1.60;;
25449;SDS011;13371;52.080;5.624;2022-08-20T09:37:29;8.25;;;1.42;;
25449;SDS011;13371;52.080;5.624;2022-08-20T09:39:55;8.80;;;1.67;;
25449;SDS011;13371;52.080;5.624;2022-08-20T09:42:25;6.60;;;1.70;;
25449;SDS011;13371;52.080;5.624;2022-08-20T09:44:52;4.97;;;1.17;;
25449;SDS011;13371;52.080;5.624;2022-08-20T09:47:19;8.73;;;1.80;;
25449;SDS011;13371;52.080;5.624;2022-08-20T09:49:44;8.45;;;1.45;;
25449;SDS011;13371;52.080;5.624;2022-08-20T09:52:17;8.52;;;1.55;;
25449;SDS011;13371;52.080;5.624;2022-08-20T09:54:53;8.48;;;1.85;;
25449;SDS011;13371;52.080;5.624;2022-08-20T09:57:22;10.73;;;1.80;;
25449;SDS011;13371;52.080;5.624;2022-08-20T09:59:50;6.45;;;1.42;;
25449;SDS011;13371;52.080;5.624;2022-08-20T10:02:20;5.63;;;1.50;;
25449;SDS011;13371;52.080;5.624;2022-08-20T10:04:46;6.70;;;1.20;;
25449;SDS011;13371;52.080;5.624;2022-08-20T10:07:12;5.20;;;1.33;;
25449;SDS011;13371;52.080;5.624;2022-08-20T10:09:37;8.02;;;1.40;;
25449;SDS011;13371;52.080;5.624;2022-08-20T10:12:03;10.10;;;1.60;;
25449;SDS011;13371;52.080;5.624;2022-08-20T10:14:29;5.15;;;1.45;;
25449;SDS011;13371;52.080;5.624;2022-08-20T10:16:58;7.38;;;1.80;;
25449;SDS011;13371;52.080;5.624;2022-08-20T10:19:25;6.28;;;1.38;;
25449;SDS011;13371;52.080;5.624;2022-08-20T10:21:52;7.32;;;1.73;;
25449;SDS011;13371;52.080;5.624;2022-08-20T10:24:18;7.10;;;2.05;;
25449;SDS011;13371;52.080;5.624;2022-08-20T10:26:44;7.60;;;1.83;;
25449;SDS011;13371;52.080;5.624;2022-08-20T10:29:10;8.55;;;1.73;;
25449;SDS011;13371;52.080;5.624;2022-08-20T10:31:36;10.30;;;1.45;;
25449;SDS011;13371;52.080;5.624;2022-08-20T10:34:01;4.85;;;1.00;;
25449;SDS011;13371;52.080;5.624;2022-08-20T10:36:27;5.15;;;1.13;;
25449;SDS011;13371;52.080;5.624;2022-08-20T10:38:53;6.95;;;1.23;;
25449;SDS011;13371;52.080;5.624;2022-08-20T10:41:18;3.47;;;1.50;;
25449;SDS011;13371;52.080;5.624;2022-08-20T10:43:45;5.20;;;1.40;;
25449;SDS011;13371;52.080;5.624;2022-08-20T10:46:10;4.95;;;1.60;;
25449;SDS011;13371;52.080;5.624;2022-08-20T10:48:36;5.78;;;1.40;;
25449;SDS011;13371;52.080;5.624;2022-08-20T10:51:03;6.28;;;1.30;;
25449;SDS011;13371;52.080;5.624;2022-08-20T10:53:28;8.32;;;1.58;;
25449;SDS011;13371;52.080;5.624;2022-08-20T10:55:54;8.10;;;1.42;;
25449;SDS011;13371;52.080;5.624;2022-08-20T10:58:21;5.40;;;0.95;;
25449;SDS011;13371;52.080;5.624;2022-08-20T11:00:47;5.05;;;1.35;;
25449;SDS011;13371;52.080;5.624;2022-08-20T11:03:12;7.55;;;1.38;;
25449;SDS011;13371;52.080;5.624;2022-08-20T11:05:38;9.02;;;1.42;;
25449;SDS011;13371;52.080;5.624;2022-08-20T11:08:04;5.10;;;1.48;;
25449;SDS011;13371;52.080;5.624;2022-08-20T11:10:30;10.77;;;1.33;;
25449;SDS011;13371;52.080;5.624;2022-08-20T11:12:58;10.00;;;1.75;;
25449;SDS011;13371;52.080;5.624;2022-08-20T11:15:25;5.70;;;1.20;;
25449;SDS011;13371;52.080;5.624;2022-08-20T11:17:51;6.60;;;1.27;;
25449;SDS011;13371;52.080;5.624;2022-08-20T11:20:17;6.57;;;1.30;;
25449;SDS011;13371;52.080;5.624;2022-08-20T11:22:44;9.15;;;1.30;;
25449;SDS011;13371;52.080;5.624;2022-08-20T11:25:10;4.75;;;1.23;;
25449;SDS011;13371;52.080;5.624;2022-08-20T11:27:37;5.13;;;1.15;;
25449;SDS011;13371;52.080;5.624;2022-08-20T11:30:06;9.63;;;1.50;;
25449;SDS011;13371;52.080;5.624;2022-08-20T11:32:34;7.10;;;1.83;;
25449;SDS011;13371;52.080;5.624;2022-08-20T11:35:00;5.38;;;1.20;;
25449;SDS011;13371;52.080;5.624;2022-08-20T11:37:25;4.72;;;1.20;;
25449;SDS011;13371;52.080;5.624;2022-08-20T11:39:51;7.63;;;1.77;;
25449;SDS011;13371;52.080;5.624;2022-08-20T11:42:18;7.75;;;1.55;;
25449;SDS011;13371;52.080;5.624;2022-08-20T11:44:43;5.20;;;1.17;;
25449;SDS011;13371;52.080;5.624;2022-08-20T11:47:09;6.57;;;1.33;;
25449;SDS011;13371;52.080;5.624;2022-08-20T11:49:56;4.47;;;1.52;;
25449;SDS011;13371;52.080;5.624;2022-08-20T11:52:23;8.57;;;1.88;;
25449;SDS011;13371;52.080;5.624;2022-08-20T11:54:50;8.02;;;1.55;;
25449;SDS011;13371;52.080;5.624;2022-08-20T11:57:22;8.98;;;1.48;;
25449;SDS011;13371;52.080;5.624;2022-08-20T11:59:51;8.68;;;1.48;;
25449;SDS011;13371;52.080;5.624;2022-08-20T12:02:17;3.00;;;1.23;;
25449;SDS011;13371;52.080;5.624;2022-08-20T12:04:43;7.88;;;2.03;;
25449;SDS011;13371;52.080;5.624;2022-08-20T12:07:13;8.50;;;1.70;;
25449;SDS011;13371;52.080;5.624;2022-08-20T12:09:40;6.95;;;1.48;;
25449;SDS011;13371;52.080;5.624;2022-08-20T12:12:07;8.60;;;1.90;;
25449;SDS011;13371;52.080;5.624;2022-08-20T12:14:33;5.93;;;1.52;;
25449;SDS011;13371;52.080;5.624;2022-08-20T12:17:08;10.35;;;1.65;;
25449;SDS011;13371;52.080;5.624;2022-08-20T12:19:40;9.13;;;1.80;;
25449;SDS011;13371;52.080;5.624;2022-08-20T12:22:07;5.55;;;1.50;;
25449;SDS011;13371;52.080;5.624;2022-08-20T12:24:33;7.85;;;1.67;;
25449;SDS011;13371;52.080;5.624;2022-08-20T12:27:11;7.03;;;1.45;;
25449;SDS011;13371;52.080;5.624;2022-08-20T12:29:40;8.50;;;1.90;;
25449;SDS011;13371;52.080;5.624;2022-08-20T12:32:07;7.82;;;1.50;;
25449;SDS011;13371;52.080;5.624;2022-08-20T12:34:34;6.65;;;1.52;;
25449;SDS011;13371;52.080;5.624;2022-08-20T12:37:01;7.70;;;1.52;;
25449;SDS011;13371;52.080;5.624;2022-08-20T12:39:29;6.25;;;1.67;;
25449;SDS011;13371;52.080;5.624;2022-08-20T12:41:57;10.90;;;1.60;;
25449;SDS011;13371;52.080;5.624;2022-08-20T12:44:24;7.30;;;1.42;;
25449;SDS011;13371;52.080;5.624;2022-08-20T12:46:50;7.13;;;1.67;;
25449;SDS011;13371;52.080;5.624;2022-08-20T12:49:15;6.97;;;1.40;;
25449;SDS011;13371;52.080;5.624;2022-08-20T12:51:41;6.88;;;1.58;;
25449;SDS011;13371;52.080;5.624;2022-08-20T12:54:06;9.88;;;1.40;;
25449;SDS011;13371;52.080;5.624;2022-08-20T12:56:32;8.13;;;1.67;;
25449;SDS011;13371;52.080;5.624;2022-08-20T12:58:57;7.03;;;1.55;;
25449;SDS011;13371;52.080;5.624;2022-08-20T13:01:23;7.88;;;1.77;;
25449;SDS011;13371;52.080;5.624;2022-08-20T13:03:48;8.02;;;1.85;;
25449;SDS011;13371;52.080;5.624;2022-08-20T13:06:14;3.35;;;1.33;;
25449;SDS011;13371;52.080;5.624;2022-08-20T13:08:39;6.28;;;1.30;;
25449;SDS011;13371;52.080;5.624;2022-08-20T13:11:05;7.22;;;1.80;;
25449;SDS011;13371;52.080;5.624;2022-08-20T13:13:30;7.95;;;2.15;;
25449;SDS011;13371;52.080;5.624;2022-08-20T13:15:56;9.13;;;1.95;;
25449;SDS011;13371;52.080;5.624;2022-08-20T13:18:21;6.57;;;1.63;;
25449;SDS011;13371;52.080;5.624;2022-08-20T13:20:47;6.63;;;2.30;;
25449;SDS011;13371;52.080;5.624;2022-08-20T13:23:13;8.10;;;1.95;;
25449;SDS011;13371;52.080;5.624;2022-08-20T13:25:38;6.68;;;1.50;;
25449;SDS011;13371;52.080;5.624;2022-08-20T13:28:04;9.82;;;1.52;;
25449;SDS011;13371;52.080;5.624;2022-08-20T13:30:30;5.80;;;1.38;;
25449;SDS011;13371;52.080;5.624;2022-08-20T13:32:58;8.63;;;1.65;;
25449;SDS011;13371;52.080;5.624;2022-08-20T13:35:24;4.20;;;1.25;;
25449;SDS011;13371;52.080;5.624;2022-08-20T13:37:49;4.38;;;1.42;;
25449;SDS011;13371;52.080;5.624;2022-08-20T13:40:15;5.53;;;1.67;;
25449;SDS011;13371;52.080;5.624;2022-08-20T13:42:41;9.52;;;1.58;;
25449;SDS011;13371;52.080;5.624;2022-08-20T13:45:07;13.55;;;1.80;;
25449;SDS011;13371;52.080;5.624;2022-08-20T13:47:34;8.40;;;1.80;;
25449;SDS011;13371;52.080;5.624;2022-08-20T13:50:15;10.68;;;1.75;;
25449;SDS011;13371;52.080;5.624;2022-08-20T13:52:42;7.55;;;2.10;;
25449;SDS011;13371;52.080;5.624;2022-08-20T13:55:09;6.38;;;2.13;;
25449;SDS011;13371;52.080;5.624;2022-08-20T13:57:37;10.23;;;2.05;;
25449;SDS011;13371;52.080;5.624;2022-08-20T14:00:04;7.75;;;2.10;;
25449;SDS011;13371;52.080;5.624;2022-08-20T14:02:34;7.30;;;1.80;;
25449;SDS011;13371;52.080;5.624;2022-08-20T14:04:59;7.32;;;1.85;;
25449;SDS011;13371;52.080;5.624;2022-08-20T14:07:26;8.85;;;1.98;;
25449;SDS011;13371;52.080;5.624;2022-08-20T14:09:54;8.18;;;1.83;;
25449;SDS011;13371;52.080;5.624;2022-08-20T14:12:22;10.88;;;2.13;;
25449;SDS011;13371;52.080;5.624;2022-08-20T14:14:49;7.05;;;2.70;;
25449;SDS011;13371;52.080;5.624;2022-08-20T14:19:50;10.95;;;2.40;;
25449;SDS011;13371;52.080;5.624;2022-08-20T14:22:18;11.85;;;2.60;;
25449;SDS011;13371;52.080;5.624;2022-08-20T14:24:44;9.05;;;1.65;;
25449;SDS011;13371;52.080;5.624;2022-08-20T14:27:10;8.90;;;2.10;;
25449;SDS011;13371;52.080;5.624;2022-08-20T14:29:38;6.05;;;1.60;;
25449;SDS011;13371;52.080;5.624;2022-08-20T14:32:05;11.85;;;2.25;;
25449;SDS011;13371;52.080;5.624;2022-08-20T14:34:31;11.65;;;2.33;;
25449;SDS011;13371;52.080;5.624;2022-08-20T14:39:44;7.97;;;1.95;;
25449;SDS011;13371;52.080;5.624;2022-08-20T14:42:11;5.95;;;1.98;;
25449;SDS011;13371;52.080;5.624;2022-08-20T14:44:37;7.60;;;2.08;;
25449;SDS011;13371;52.080;5.624;2022-08-20T14:47:10;12.25;;;2.25;;
25449;SDS011;13371;52.080;5.624;2022-08-20T14:49:41;7.65;;;1.85;;
25449;SDS011;13371;52.080;5.624;2022-08-20T14:52:08;9.32;;;1.98;;
25449;SDS011;13371;52.080;5.624;2022-08-20T14:54:34;13.02;;;1.80;;
25449;SDS011;13371;52.080;5.624;2022-08-20T14:57:00;8.63;;;2.05;;
25449;SDS011;13371;52.080;5.624;2022-08-20T14:59:26;7.70;;;1.88;;
25449;SDS011;13371;52.080;5.624;2022-08-20T15:01:52;5.07;;;1.30;;